Time;durP1;ratioP1;P1;durP2;ratioP2;P2;SDS_P1;SDS_P2;PMS_P1;PMS_P2;Temp;Humidity;BMP_temperature;BMP_pressure;BME280_temperature;BME280_humidity;BME280_pressure;Samples;Min_cycle;Max_cycle;Signal;HPM_P1;HPM_P2
2022/04/25 00:02:14;;;;;;;;;17.00;15.25;;;;;15.89;45.46;100156.75;5013801;28;45350;-53
2022/04/25 00:04:40;;;;;;;;;21.00;16.00;;;;;15.81;45.79;100160.81;5015184;28;45460;-57
2022/04/25 00:07:05;;;;;;;;;17.25;15.00;;;;;15.79;45.67;100166.59;5015062;28;45377;-55
2022/04/25 00:09:31;;;;;;;;;18.25;15.75;;;;;15.68;45.89;100148.22;5015517;28;45418;-52
2022/04/25 00:11:56;;;;;;;;;14.00;12.00;;;;;15.80;45.14;100162.75;5015227;28;46041;-56
2022/04/25 00:14:22;;;;;;;;;16.00;16.00;;;;;15.77;45.28;100160.50;5032615;28;45394;-54
2022/04/25 00:16:47;;;;;;;;;17.00;16.00;;;;;15.81;45.15;100160.81;5017471;28;45331;-52
2022/04/25 00:19:13;;;;;;;;;18.75;15.00;;;;;15.65;45.53;100129.41;5018260;28;45632;-51
2022/04/25 00:21:38;;;;;;;;;22.00;16.50;;;;;15.70;45.82;100143.28;5018377;28;46002;-54
2022/04/25 00:24:04;;;;;;;;;17.00;15.75;;;;;15.69;45.44;100147.16;5018179;28;45383;-55
2022/04/25 00:26:29;;;;;;;;;20.50;17.75;;;;;15.69;45.99;100152.69;5018643;28;45507;-51
2022/04/25 00:28:55;;;;;;;;;16.50;16.50;;;;;15.65;45.43;100157.06;5018677;28;45450;-52
2022/04/25 00:31:20;;;;;;;;;15.75;15.75;;;;;15.50;45.85;100147.50;5018091;28;45890;-57
2022/04/25 00:33:46;;;;;;;;;14.75;13.75;;;;;15.50;45.88;100147.50;5018269;28;45338;-54
2022/04/25 00:36:11;;;;;;;;;17.50;15.50;;;;;15.38;46.26;100157.88;5017119;28;45356;-52
2022/04/25 00:38:37;;;;;;;;;16.00;15.25;;;;;15.44;46.12;100152.13;5017143;28;45616;-56
2022/04/25 00:41:05;;;;;;;;;18.75;16.25;;;;;15.47;46.00;100152.72;5018211;28;46413;-55
2022/04/25 00:43:31;;;;;;;;;14.80;14.00;;;;;15.51;45.72;100154.69;5000352;28;45546;-52
2022/04/25 00:45:56;;;;;;;;;18.25;15.25;;;;;15.50;45.76;100158.56;5018368;28;45320;-55
2022/04/25 00:48:22;;;;;;;;;18.25;16.00;;;;;15.44;45.85;100160.41;5018014;28;45437;-52
2022/04/25 00:50:47;;;;;;;;;16.00;15.25;;;;;15.45;46.03;100158.50;5017963;28;46435;-52
2022/04/25 00:53:13;;;;;;;;;19.50;16.75;;;;;15.21;45.97;100124.78;5017943;28;45402;-58
2022/04/25 00:55:38;;;;;;;;;17.00;16.00;;;;;15.37;46.30;100164.50;5018227;28;45344;-56
2022/04/25 00:58:04;;;;;;;;;18.00;18.00;;;;;15.45;45.95;100162.13;5016974;28;45689;-53
2022/04/25 01:00:30;;;;;;;;;13.00;13.00;;;;;15.47;45.82;100161.03;5018313;28;45650;-54
2022/04/25 01:02:55;;;;;;;;;17.25;13.75;;;;;15.46;46.32;100168.47;5017744;28;45336;-51
2022/04/25 01:05:20;;;;;;;;;15.00;15.00;;;;;15.47;46.14;100161.84;5017997;28;45383;-55
2022/04/25 01:07:46;;;;;;;;;14.75;14.00;;;;;15.38;46.08;100157.88;5017783;28;45267;-54
2022/04/25 01:10:12;;;;;;;;;13.75;13.50;;;;;15.34;46.24;100167.75;5016392;28;45931;-54
2022/04/25 01:12:37;;;;;;;;;15.25;11.50;;;;;15.25;46.72;100151.63;5017850;28;45303;-54
2022/04/25 01:15:05;;;;;;;;;16.50;15.00;;;;;15.32;46.40;100154.22;5016404;28;45360;-52
2022/04/25 01:17:31;;;;;;;;;14.20;14.20;;;;;15.41;46.46;100166.47;5016731;28;45407;-53
2022/04/25 01:19:56;;;;;;;;;17.50;14.75;;;;;15.41;46.54;100166.47;5015724;28;47348;-53
2022/04/25 01:22:27;;;;;;;;;14.25;13.50;;;;;15.43;46.08;100157.94;5017602;28;45756;-55
2022/04/25 01:27:37;;;;;;;;;15.20;15.20;;;;;15.10;46.74;100132.13;5017863;28;45701;-54
2022/04/25 01:30:03;;;;;;;;;16.25;13.50;;;;;15.11;46.74;100153.94;5017058;28;46493;-54
2022/04/25 01:32:29;;;;;;;;;13.60;13.00;;;;;15.19;46.82;100158.19;5017605;28;45314;-52
2022/04/25 01:34:54;;;;;;;;;18.00;15.75;;;;;15.25;46.97;100159.09;5017126;28;45853;-54
2022/04/25 01:37:20;;;;;;;;;13.75;13.00;;;;;15.08;46.72;100146.19;4990453;28;46036;-58
2022/04/25 01:39:50;;;;;;;;;19.50;15.00;;;;;14.88;46.68;100113.56;5004119;28;46167;-52
2022/04/25 01:42:16;;;;;;;;;16.80;16.20;;;;;15.03;46.95;100143.34;4997088;28;45341;-55
2022/04/25 01:44:42;;;;;;;;;15.50;15.50;;;;;15.21;46.80;100169.00;5012928;28;45387;-56
2022/04/25 01:47:07;;;;;;;;;18.50;15.75;;;;;15.09;47.31;100174.66;4997482;28;45610;-56
2022/04/25 01:49:33;;;;;;;;;18.75;17.75;;;;;15.03;47.00;100162.69;5001510;28;45389;-56
2022/04/25 01:52:05;;;;;;;;;16.50;14.75;;;;;14.96;47.17;100162.03;5017125;28;45326;-55
2022/04/25 01:54:32;;;;;;;;;15.80;14.80;;;;;14.55;48.04;100120.81;5015908;28;45438;-52
2022/04/25 01:56:57;;;;;;;;;19.00;16.20;;;;;14.87;47.60;100161.63;5017061;28;45418;-52
2022/04/25 01:59:23;;;;;;;;;22.25;18.25;;;;;15.06;47.89;100177.94;5015412;28;46504;-54
2022/04/25 02:01:50;;;;;;;;;17.50;16.75;;;;;14.96;47.39;100171.19;5015916;28;45391;-54
2022/04/25 02:04:15;;;;;;;;;19.40;16.40;;;;;14.94;48.20;100176.09;5016749;28;45351;-56
2022/04/25 02:06:41;;;;;;;;;16.00;14.25;;;;;14.87;47.61;100183.75;5015938;28;45245;-53
2022/04/25 02:09:06;;;;;;;;;14.75;14.50;;;;;14.88;48.11;100188.16;4998391;28;45780;-55
2022/04/25 02:11:32;;;;;;;;;17.25;14.50;;;;;14.48;48.55;100138.41;5016974;28;45310;-55
2022/04/25 02:13:58;;;;;;;;;16.40;15.40;;;;;14.80;48.44;100189.47;5015542;28;45447;-52
2022/04/25 02:16:24;;;;;;;;;14.50;13.50;;;;;14.75;48.28;100190.22;5015628;28;45379;-53
2022/04/25 02:18:49;;;;;;;;;15.25;13.25;;;;;14.69;48.68;100188.44;5016493;28;45605;-51
2022/04/25 02:21:15;;;;;;;;;17.75;16.50;;;;;14.67;48.39;100187.84;4998486;28;45324;-52
2022/04/25 02:23:41;;;;;;;;;15.50;15.25;;;;;14.68;49.16;100194.22;5015641;28;45473;-55
2022/04/25 02:26:07;;;;;;;;;12.50;12.50;;;;;14.53;49.34;100194.81;5015499;28;45362;-56
2022/04/25 02:28:36;;;;;;;;;17.80;15.00;;;;;14.50;49.56;100193.38;5016323;28;46913;-53
2022/04/25 02:31:02;;;;;;;;;15.00;14.80;;;;;14.46;49.38;100193.06;5016710;28;45888;-54
2022/04/25 02:33:27;;;;;;;;;16.00;13.25;;;;;14.44;49.72;100188.88;5015089;28;45554;-50
2022/04/25 02:35:56;;;;;;;;;16.75;14.00;;;;;14.39;49.23;100192.38;5015474;28;45543;-55
2022/04/25 02:38:21;;;;;;;;;14.60;14.20;;;;;14.29;49.54;100159.13;5016141;28;46623;-52
2022/04/25 02:41:04;;;;;;;;;17.00;13.25;;;;;14.20;49.52;100137.44;5014414;28;45386;-52
2022/04/25 02:43:34;;;;;;;;;15.80;13.60;;;;;14.52;49.31;100194.00;5016146;28;45322;-55
2022/04/25 02:46:00;;;;;;;;;17.80;16.80;;;;;14.31;50.06;100181.78;5015143;28;45399;-51
2022/04/25 02:48:26;;;;;;;;;15.20;13.20;;;;;14.16;50.01;100161.13;5015911;28;45583;-55
2022/04/25 02:50:51;;;;;;;;;14.00;13.00;;;;;14.31;50.20;100195.56;5006873;28;45436;-58
2022/04/25 02:53:17;;;;;;;;;20.50;17.00;;;;;14.28;50.19;100198.81;5035417;28;45390;-52
2022/04/25 02:55:42;;;;;;;;;17.25;15.50;;;;;14.32;49.84;100197.25;5030435;28;46035;-56
2022/04/25 02:58:11;;;;;;;;;18.75;15.25;;;;;14.12;50.27;100165.44;5034903;28;45777;-52
2022/04/25 03:00:37;;;;;;;;;16.00;13.20;;;;;14.00;50.38;100145.38;5034657;28;45249;-53
2022/04/25 03:03:02;;;;;;;;;23.00;17.25;;;;;14.30;50.74;100193.91;5034845;28;45321;-56
2022/04/25 03:05:28;;;;;;;;;15.25;14.75;;;;;14.20;50.77;100198.16;5031452;28;45612;-52
2022/04/25 03:07:54;;;;;;;;;16.25;12.50;;;;;14.11;51.47;100207.94;5035001;28;45878;-55
2022/04/25 03:10:19;;;;;;;;;19.60;19.60;;;;;14.03;51.63;100208.34;5034743;28;45359;-54
2022/04/25 03:12:45;;;;;;;;;19.25;16.75;;;;;14.08;51.48;100212.03;5036147;28;45347;-55
2022/04/25 03:15:10;;;;;;;;;17.50;15.00;;;;;14.15;51.46;100203.56;5036374;28;45493;-55
2022/04/25 03:17:36;;;;;;;;;18.25;18.25;;;;;14.00;50.95;100173.81;5034287;28;46123;-53
2022/04/25 03:20:01;;;;;;;;;21.75;18.25;;;;;14.20;51.41;100200.91;5036033;28;45433;-56
2022/04/25 03:22:27;;;;;;;;;18.00;15.00;;;;;14.15;51.68;100202.75;5034820;28;45429;-52
2022/04/25 03:24:53;;;;;;;;;21.50;19.00;;;;;13.92;52.56;100208.16;5035997;28;45400;-54
2022/04/25 03:27:18;;;;;;;;;17.25;15.25;;;;;13.78;52.70;100199.31;5036006;28;46482;-55
2022/04/25 03:29:44;;;;;;;;;20.25;20.25;;;;;13.81;52.58;100203.50;5035533;28;45764;-56
2022/04/25 03:32:09;;;;;;;;;25.75;20.25;;;;;13.79;53.17;100203.78;5035901;28;45392;-54
2022/04/25 03:34:37;;;;;;;;;20.50;17.25;;;;;13.74;52.99;100202.81;5035729;28;45370;-51
2022/04/25 03:37:03;;;;;;;;;19.20;16.60;;;;;13.77;53.22;100216.16;5035643;28;45626;-54
2022/04/25 03:39:29;;;;;;;;;21.80;17.80;;;;;13.77;53.50;100216.16;5035840;28;45413;-53
2022/04/25 03:41:55;;;;;;;;;23.50;21.00;;;;;13.37;53.92;100158.00;5035744;28;45383;-53
2022/04/25 03:44:20;;;;;;;;;16.50;16.00;;;;;13.73;53.32;100217.72;5036036;28;45687;-54
2022/04/25 03:46:46;;;;;;;;;19.00;17.50;;;;;13.51;54.20;100199.91;5034882;28;45723;-53
2022/04/25 03:49:13;;;;;;;;;22.00;16.00;;;;;13.61;53.95;100224.09;5035569;28;45413;-52
2022/04/25 03:51:39;;;;;;;;;23.00;20.40;;;;;13.54;54.07;100201.34;5000097;28;45460;-56
2022/04/25 03:54:04;;;;;;;;;20.50;14.00;;;;;13.67;54.22;100220.34;5015646;28;45613;-52
2022/04/25 03:59:14;;;;;;;;;25.00;21.40;;;;;13.59;54.25;100228.16;5015294;28;45427;-52
2022/04/25 04:01:39;;;;;;;;;18.75;16.25;;;;;13.49;54.36;100220.53;5015313;28;45436;-53
2022/04/25 04:04:05;;;;;;;;;18.00;17.00;;;;;13.49;54.60;100229.66;5015719;28;45402;-52
2022/04/25 04:06:32;;;;;;;;;23.75;21.00;;;;;13.49;54.34;100228.81;5013718;28;45984;-52
2022/04/25 04:08:58;;;;;;;;;22.00;17.60;;;;;13.45;54.77;100227.59;5014041;28;45417;-51
2022/04/25 04:11:45;;;;;;;;;24.25;21.25;;;;;13.40;55.00;100229.16;5014172;28;45264;-51
2022/04/25 04:14:09;;;;;;;;;27.60;21.20;;;;;13.36;55.47;100228.00;5015250;28;45510;-57
2022/04/25 04:16:34;;;;;;;;;22.25;18.50;;;;;13.22;55.71;100234.81;5015082;28;46615;-54
2022/04/25 04:19:00;;;;;;;;;27.50;24.00;;;;;13.26;55.73;100236.03;5013862;28;45310;-53
2022/04/25 04:21:25;;;;;;;;;21.50;21.00;;;;;13.19;56.00;100243.59;5013829;28;45558;-55
2022/04/25 04:23:51;;;;;;;;;26.00;20.50;;;;;12.99;55.78;100206.25;5014253;28;45328;-55
2022/04/25 04:26:16;;;;;;;;;25.25;23.00;;;;;13.13;56.35;100232.44;5014845;28;46388;-54
2022/04/25 04:28:42;;;;;;;;;21.50;20.75;;;;;13.07;56.15;100240.84;5013976;28;45490;-53
2022/04/25 04:31:08;;;;;;;;;29.20;22.20;;;;;13.03;56.31;100243.25;5015133;28;45458;-52
2022/04/25 04:33:33;;;;;;;;;22.75;21.25;;;;;13.12;56.18;100251.97;4997614;28;45486;-54
2022/04/25 04:38:43;;;;;;;;;29.20;25.20;;;;;13.08;56.58;100257.13;5015088;28;45408;-53
2022/04/25 04:41:09;;;;;;;;;26.20;23.20;;;;;12.94;57.02;100261.22;5015054;28;45444;-56
2022/04/25 04:43:34;;;;;;;;;25.75;21.00;;;;;12.91;56.84;100264.44;5014975;28;45343;-52
2022/04/25 04:46:00;;;;;;;;;27.75;23.50;;;;;12.92;56.97;100260.63;5013501;28;48693;-52
2022/04/25 04:48:26;;;;;;;;;24.00;22.00;;;;;12.90;57.03;100271.88;5014819;28;45736;-52
2022/04/25 04:50:55;;;;;;;;;24.20;21.40;;;;;12.81;57.73;100274.13;5014866;28;45413;-56
2022/04/25 04:53:21;;;;;;;;;29.40;21.40;;;;;12.79;57.50;100272.69;5013735;28;45347;-56
2022/04/25 04:55:46;;;;;;;;;27.40;26.40;;;;;12.67;57.16;100251.50;5014677;28;46755;-54
2022/04/25 04:58:12;;;;;;;;;29.50;26.25;;;;;12.86;57.72;100290.78;5014076;28;45478;-54
2022/04/25 05:00:37;;;;;;;;;32.50;29.00;;;;;12.64;57.73;100259.41;5017657;28;45456;-57
2022/04/25 05:03:03;;;;;;;;;28.25;26.75;;;;;12.71;57.84;100273.91;5017817;28;45409;-53
2022/04/25 05:05:29;;;;;;;;;33.50;29.00;;;;;12.77;57.90;100294.97;5016339;28;45471;-56
2022/04/25 05:07:54;;;;;;;;;27.75;26.75;;;;;12.82;57.16;100297.00;5017704;28;45398;-51
2022/04/25 05:10:20;;;;;;;;;30.25;27.25;;;;;12.72;57.28;100264.56;5016560;28;45474;-53
2022/04/25 05:12:47;;;;;;;;;31.25;25.00;;;;;12.90;57.79;100295.84;5016755;28;45685;-57
2022/04/25 05:15:13;;;;;;;;;33.20;29.00;;;;;12.67;57.04;100272.69;5017416;28;45811;-53
2022/04/25 05:17:41;;;;;;;;;34.60;31.80;;;;;12.92;57.38;100304.69;5016486;28;45378;-54
2022/04/25 05:20:08;;;;;;;;;32.00;30.40;;;;;12.80;57.54;100307.44;5017848;28;45510;-56
2022/04/25 05:22:34;;;;;;;;;41.00;35.80;;;;;12.69;58.24;100304.41;5016275;28;45616;-56
2022/04/25 05:24:59;;;;;;;;;35.50;33.25;;;;;12.74;57.94;100318.31;5017613;28;45481;-53
2022/04/25 05:27:25;;;;;;;;;31.75;30.25;;;;;12.74;57.93;100322.97;5017080;28;45434;-55
2022/04/25 05:29:50;;;;;;;;;37.75;35.75;;;;;12.74;58.00;100317.47;5017745;28;45359;-56
2022/04/25 05:32:16;;;;;;;;;28.25;25.75;;;;;12.79;57.80;100320.34;5017863;28;45284;-51
2022/04/25 05:34:41;;;;;;;;;36.50;31.75;;;;;12.71;58.22;100323.47;4980833;28;46018;-56
2022/04/25 05:37:09;;;;;;;;;34.25;29.00;;;;;12.67;58.04;100325.84;5016127;28;45343;-51
2022/04/25 05:39:35;;;;;;;;;37.00;33.80;;;;;12.63;58.14;100326.56;5017428;28;45292;-54
2022/04/25 05:42:01;;;;;;;;;33.75;32.50;;;;;12.72;58.00;100330.66;5017829;28;45858;-55
2022/04/25 05:44:27;;;;;;;;;39.40;35.20;;;;;12.60;58.15;100303.91;5016838;28;45478;-56
2022/04/25 05:46:52;;;;;;;;;34.75;32.25;;;;;12.69;57.77;100331.94;5015815;28;45476;-59
2022/04/25 05:52:05;;;;;;;;;30.60;30.20;;;;;12.71;58.43;100346.31;5016237;28;45375;-52
2022/04/25 05:54:31;;;;;;;;;41.80;35.60;;;;;12.70;58.28;100341.06;5015836;28;46504;-53
2022/04/25 05:56:57;;;;;;;;;34.40;30.80;;;;;12.76;57.79;100350.28;5016964;28;45295;-55
2022/04/25 05:59:23;;;;;;;;;44.25;36.25;;;;;12.68;58.17;100351.44;5017234;28;45468;-55
2022/04/25 06:01:48;;;;;;;;;39.00;31.75;;;;;12.68;57.98;100345.94;5017407;28;45514;-51
2022/04/25 06:04:13;;;;;;;;;39.50;34.00;;;;;12.81;57.92;100364.19;5017114;28;46000;-52
2022/04/25 06:06:39;;;;;;;;;37.25;34.00;;;;;12.83;57.54;100365.63;5015590;28;45392;-51
2022/04/25 06:09:05;;;;;;;;;42.75;36.25;;;;;12.82;57.43;100363.94;5017331;28;45461;-55
2022/04/25 06:11:32;;;;;;;;;47.50;39.75;;;;;12.80;57.61;100366.09;5015834;28;45580;-52
2022/04/25 06:13:59;;;;;;;;;40.20;36.00;;;;;12.81;57.55;100369.69;5016915;28;45479;-53
2022/04/25 06:16:24;;;;;;;;;51.40;39.80;;;;;12.82;57.73;100365.88;5016868;28;45420;-53
2022/04/25 06:18:50;;;;;;;;;35.50;31.25;;;;;12.81;57.31;100375.19;5016931;28;45346;-53
2022/04/25 06:21:15;;;;;;;;;48.75;37.00;;;;;12.85;57.39;100366.22;5015994;28;45399;-52
2022/04/25 06:23:41;;;;;;;;;48.50;38.50;;;;;12.85;57.54;100379.16;5016629;28;46357;-56
2022/04/25 06:26:07;;;;;;;;;47.75;40.75;;;;;12.83;57.44;100370.28;5016763;28;45431;-52
2022/04/25 06:28:32;;;;;;;;;44.25;35.25;;;;;12.83;57.36;100365.63;4999097;28;45333;-51
2022/04/25 06:30:58;;;;;;;;;40.75;36.25;;;;;12.95;57.34;100378.56;5015568;28;45300;-53
2022/04/25 06:33:24;;;;;;;;;46.80;37.60;;;;;12.92;57.20;100362.53;5015113;28;46147;-54
2022/04/25 06:35:50;;;;;;;;;46.25;38.50;;;;;12.95;57.02;100382.19;5015031;28;45585;-59
2022/04/25 06:38:18;;;;;;;;;47.50;40.25;;;;;12.64;57.35;100353.03;5016625;28;45324;-53
2022/04/25 06:40:44;;;;;;;;;50.00;38.50;;;;;12.86;57.25;100381.66;5015341;28;45552;-55
2022/04/25 06:43:10;;;;;;;;;44.80;37.80;;;;;12.92;57.36;100385.38;5015828;28;45529;-55
2022/04/25 06:45:36;;;;;;;;;50.00;38.20;;;;;12.75;56.96;100346.69;4998822;28;45432;-57
2022/04/25 06:48:01;;;;;;;;;47.50;39.75;;;;;12.88;56.85;100385.03;5016093;28;45279;-54
2022/04/25 06:50:27;;;;;;;;;47.50;39.75;;;;;12.85;57.13;100390.16;5016953;28;45208;-57
2022/04/25 06:52:53;;;;;;;;;49.75;40.00;;;;;12.95;56.88;100390.44;5016044;28;45871;-54
2022/04/25 06:55:19;;;;;;;;;40.75;36.00;;;;;12.78;56.56;100372.91;5016374;28;45352;-55
2022/04/25 06:57:47;;;;;;;;;51.00;41.40;;;;;12.98;56.61;100397.41;5014524;28;45708;-59
2022/04/25 07:00:13;;;;;;;;;55.60;43.00;;;;;13.02;56.57;100402.19;5016034;28;45407;-55
2022/04/25 07:02:39;;;;;;;;;49.20;39.80;;;;;13.06;56.69;100394.28;5014522;28;47168;-55
2022/04/25 07:05:06;;;;;;;;;42.25;36.00;;;;;13.05;56.37;100389.00;5014549;28;45387;-58
2022/04/25 07:07:32;;;;;;;;;48.20;38.60;;;;;13.23;55.96;100399.94;5009237;28;45818;-55
2022/04/25 07:09:57;;;;;;;;;32.60;31.60;;;;;13.14;55.46;100382.91;5007055;28;45441;-50
2022/04/25 07:12:23;;;;;;;;;48.25;39.25;;;;;13.24;55.20;100404.38;5009196;28;46325;-51
2022/04/25 07:14:49;;;;;;;;;43.75;36.75;;;;;13.08;55.59;100408.66;5014914;28;45402;-50
2022/04/25 07:17:14;;;;;;;;;47.25;37.75;;;;;12.83;55.59;100373.91;5014805;28;45240;-53
2022/04/25 07:19:40;;;;;;;;;48.00;40.50;;;;;12.99;56.39;100410.09;5015958;28;45410;-51
2022/04/25 07:30:21;;;;;;;;;52.60;39.40;;;;;13.12;55.62;100415.38;5014967;28;45351;-52
2022/04/25 07:32:46;;;;;;;;;47.00;39.50;;;;;13.20;55.42;100422.47;5015499;28;46950;-54
2022/04/25 07:35:12;;;;;;;;;50.25;39.25;;;;;13.17;55.32;100422.09;5015155;28;45322;-50
2022/04/25 07:37:37;;;;;;;;;53.50;40.00;;;;;13.24;55.65;100431.09;5015586;28;45338;-55
2022/04/25 07:40:06;;;;;;;;;54.75;41.50;;;;;13.19;55.20;100422.69;5015697;28;45367;-52
2022/04/25 07:42:32;;;;;;;;;46.40;39.20;;;;;13.19;55.11;100419.94;5015232;28;45999;-50
2022/04/25 07:44:58;;;;;;;;;49.80;43.00;;;;;13.23;55.16;100435.75;5014166;28;45506;-53
2022/04/25 07:47:24;;;;;;;;;42.50;37.00;;;;;13.25;55.24;100439.09;5015030;28;45491;-55
2022/04/25 07:49:50;;;;;;;;;51.00;42.50;;;;;13.22;55.54;100428.56;5015563;28;45340;-54
2022/04/25 07:52:17;;;;;;;;;50.40;42.20;;;;;13.23;55.06;100424.72;5014935;28;45919;-50
2022/04/25 07:54:42;;;;;;;;;47.40;37.80;;;;;13.20;55.13;100394.06;5014106;28;45458;-53
2022/04/25 07:57:08;;;;;;;;;45.50;38.50;;;;;13.63;54.51;100438.94;5013634;28;45507;-52
2022/04/25 07:59:36;;;;;;;;;47.00;38.50;;;;;13.75;53.59;100438.94;5005692;28;45473;-53
2022/04/25 08:02:02;;;;;;;;;46.60;39.60;;;;;13.91;53.34;100440.97;5002529;28;46431;-52
2022/04/25 08:04:29;;;;;;;;;50.60;41.00;;;;;13.95;53.14;100441.31;4970587;28;45610;-54
2022/04/25 08:06:55;;;;;;;;;48.00;38.40;;;;;13.79;53.53;100405.13;5037824;28;45490;-50
2022/04/25 08:09:20;;;;;;;;;49.00;42.50;;;;;14.00;53.16;100443.34;5015519;28;45311;-53
2022/04/25 08:11:46;;;;;;;;;47.00;38.75;;;;;14.00;52.73;100443.34;5013724;28;45498;-52
2022/04/25 08:19:40;;;;;;;;;46.50;38.50;;;;;13.91;52.85;100459.44;5015270;28;45368;-57
2022/04/25 08:22:09;;;;;;;;;47.50;40.25;;;;;14.05;52.96;100458.09;5013776;28;47268;-56
2022/04/25 08:24:36;;;;;;;;;46.80;38.80;;;;;14.14;52.51;100468.78;5015228;28;45421;-56
2022/04/25 08:27:05;;;;;;;;;46.80;38.20;;;;;14.20;52.15;100463.09;5014056;28;45495;-54
2022/04/25 08:29:32;;;;;;;;;49.00;40.20;;;;;14.11;52.56;100464.56;5015436;28;45673;-52
2022/04/25 08:31:58;;;;;;;;;45.80;40.00;;;;;14.16;53.10;100463.84;5015118;28;45908;-56
2022/04/25 08:34:24;;;;;;;;;50.60;40.00;;;;;14.26;52.46;100455.78;5014814;28;45383;-54
2022/04/25 08:36:49;;;;;;;;;45.50;39.00;;;;;14.32;51.83;100462.25;5017244;28;45409;-54
2022/04/25 08:39:15;;;;;;;;;47.00;38.25;;;;;14.38;52.43;100464.03;5014661;28;45349;-57
2022/04/25 08:41:46;;;;;;;;;35.25;33.50;;;;;14.28;51.54;100438.97;5038180;28;46166;-55
2022/04/25 08:44:14;;;;;;;;;35.20;33.20;;;;;14.49;51.43;100479.72;5028149;28;45491;-53
2022/04/25 08:46:39;;;;;;;;;44.80;36.20;;;;;14.22;51.72;100430.59;5020982;28;45459;-54
2022/04/25 08:49:05;;;;;;;;;44.50;36.75;;;;;14.78;51.54;100476.16;5020211;28;45488;-53
2022/04/25 08:51:33;;;;;;;;;36.25;34.00;;;;;15.02;50.37;100481.59;5049956;28;45368;-52
2022/04/25 08:53:59;;;;;;;;;49.00;37.60;;;;;15.02;50.48;100489.88;5018204;28;45283;-53
2022/04/25 08:56:25;;;;;;;;;44.75;38.75;;;;;15.04;50.47;100487.69;5027171;28;45527;-52
2022/04/25 08:58:51;;;;;;;;;50.20;41.80;;;;;15.14;49.77;100474.06;5037386;28;45517;-52
2022/04/25 09:01:17;;;;;;;;;45.50;38.25;;;;;15.37;49.62;100493.53;4999643;28;46482;-51
2022/04/25 09:03:42;;;;;;;;;44.00;35.75;;;;;15.25;48.92;100465.94;5006651;28;45457;-54
2022/04/25 09:06:08;;;;;;;;;46.00;36.00;;;;;15.47;48.77;100485.41;5014348;28;45402;-54
2022/04/25 09:08:34;;;;;;;;;41.40;35.00;;;;;15.47;48.83;100484.56;5027161;28;45377;-55
2022/04/25 09:12:09;;;;;;;;;42.60;35.80;;;;;15.56;48.71;100485.81;5037487;28;46804;-53
2022/04/25 09:13:45;;;;;;;;;44.20;38.60;;;;;15.63;48.85;100496.72;5037119;28;45503;-53
2022/04/25 09:16:14;;;;;;;;;50.75;40.25;;;;;15.62;48.20;100486.75;5036233;28;45322;-52
2022/04/25 09:18:40;;;;;;;;;39.20;34.00;;;;;15.63;49.43;100477.38;5037771;28;45567;-54
2022/04/25 09:21:05;;;;;;;;;48.25;39.50;;;;;15.48;48.33;100461.34;5034187;28;46190;-53
2022/04/25 09:23:31;;;;;;;;;44.75;38.00;;;;;15.51;48.72;100492.09;5037285;28;45357;-53
2022/04/25 09:26:37;;;;;;;;;49.00;40.25;;;;;15.34;49.04;100489.34;5036182;28;45544;-54
2022/04/25 09:29:03;;;;;;;;;46.00;36.00;;;;;15.30;49.15;100493.69;5037322;28;45402;-53
2022/04/25 09:31:28;;;;;;;;;48.25;38.50;;;;;15.22;49.01;100494.94;5037069;28;46470;-51
2022/04/25 09:33:54;;;;;;;;;45.00;36.50;;;;;15.15;49.40;100497.00;5017132;28;45431;-53
2022/04/25 09:36:21;;;;;;;;;42.75;36.75;;;;;15.07;49.46;100473.38;4999143;28;45439;-54
2022/04/25 09:38:46;;;;;;;;;36.60;35.00;;;;;15.12;49.01;100498.38;5009486;27;45496;-55
2022/04/25 09:41:12;;;;;;;;;47.25;38.25;;;;;14.91;49.33;100466.75;5017240;28;45795;-55
2022/04/25 09:43:40;;;;;;;;;47.00;37.80;;;;;15.03;49.07;100499.84;5015983;28;45369;-54
2022/04/25 09:46:13;;;;;;;;;38.80;33.40;;;;;14.96;50.15;100508.28;5021262;28;45406;-55
2022/04/25 09:48:41;;;;;;;;;45.40;37.60;;;;;14.95;49.31;100481.75;5017279;28;45526;-52
2022/04/25 09:51:11;;;;;;;;;44.20;38.00;;;;;15.11;49.20;100510.47;5016951;28;45381;-53
2022/04/25 09:53:49;;;;;;;;;47.40;37.60;;;;;15.06;50.06;100510.41;5016989;28;45652;-51
2022/04/25 09:56:17;;;;;;;;;38.20;34.80;;;;;15.28;49.35;100507.78;5018670;28;45414;-54
2022/04/25 09:58:43;;;;;;;;;37.60;31.40;;;;;15.45;49.19;100499.50;5036961;28;45607;-53
2022/04/25 10:01:13;;;;;;;;;36.20;31.00;;;;;15.41;48.30;100492.78;5012102;28;45871;-55
2022/04/25 10:03:39;;;;;;;;;42.60;35.60;;;;;15.41;48.15;100511.28;4985219;28;45515;-51
2022/04/25 10:06:05;;;;;;;;;36.80;31.80;;;;;15.49;48.36;100505.38;4992394;28;45319;-54
2022/04/25 10:08:31;;;;;;;;;39.00;34.00;;;;;15.54;48.33;100501.84;5010375;28;45969;-49
2022/04/25 10:10:57;;;;;;;;;44.60;37.20;;;;;15.68;48.50;100505.09;5014346;28;45444;-50
2022/04/25 10:13:26;;;;;;;;;38.00;34.00;;;;;15.77;48.26;100513.81;5015384;28;45432;-50
2022/04/25 10:15:52;;;;;;;;;39.60;34.60;;;;;15.82;48.02;100509.22;5014399;28;45360;-51
2022/04/25 10:18:17;;;;;;;;;42.25;32.25;;;;;15.90;47.82;100516.22;5013165;28;45627;-52
2022/04/25 10:20:45;;;;;;;;;38.00;34.25;;;;;15.97;47.19;100524.41;5014825;28;47687;-52
2022/04/25 10:23:11;;;;;;;;;39.20;32.00;;;;;15.94;47.29;100513.81;5015248;28;45368;-52
2022/04/25 10:25:38;;;;;;;;;43.40;35.80;;;;;16.07;46.90;100513.47;5016194;28;45342;-52
2022/04/25 10:28:11;;;;;;;;;44.60;34.80;;;;;16.08;46.81;100517.94;5016275;28;45486;-55
2022/04/25 10:30:36;;;;;;;;;41.40;34.20;;;;;16.07;46.67;100518.19;5014145;28;46497;-54
2022/04/25 10:33:50;;;;;;;;;31.00;28.25;;;;;16.12;45.43;100534.88;5015073;28;45439;-52
2022/04/25 10:36:37;;;;;;;;;26.00;23.60;;;;;16.02;45.03;100527.25;5015117;28;45642;-56
2022/04/25 10:39:22;;;;;;;;;26.40;25.20;;;;;16.01;45.64;100520.00;5015651;28;45514;-54
2022/04/25 10:44:40;;;;;;;;;23.20;23.20;;;;;16.01;46.28;100477.66;5016046;28;45403;-57
2022/04/25 10:47:05;;;;;;;;;28.40;26.40;;;;;16.10;45.29;100490.81;5016564;28;45357;-53
2022/04/25 10:49:50;;;;;;;;;32.00;31.00;;;;;16.31;44.74;100509.63;5016387;28;45723;-56
2022/04/25 10:52:33;;;;;;;;;33.60;31.20;;;;;16.59;45.10;100516.94;5015182;28;45554;-52
2022/04/25 10:55:23;;;;;;;;;30.80;30.20;;;;;16.78;44.77;100516.59;5033069;28;45518;-57
2022/04/25 10:58:07;;;;;;;;;28.20;26.60;;;;;16.83;43.52;100519.44;5033812;28;45357;-53
2022/04/25 11:03:09;;;;;;;;;28.60;27.40;;;;;16.97;43.15;100510.72;5035570;28;45577;-59
2022/04/25 11:05:39;;;;;;;;;26.00;25.60;;;;;17.15;42.27;100521.47;5035561;28;45511;-53
2022/04/25 11:08:19;;;;;;;;;23.20;21.80;;;;;16.63;42.78;100442.44;5036020;28;45451;-55
2022/04/25 11:10:58;;;;;;;;;28.60;26.40;;;;;17.25;42.18;100528.22;5035802;28;45322;-53
2022/04/25 11:13:26;;;;;;;;;29.60;25.00;;;;;17.22;41.85;100529.56;5034481;28;47975;-55
2022/04/25 11:15:53;;;;;;;;;30.00;28.00;;;;;17.09;42.47;100494.78;5034323;28;45436;-53
2022/04/25 11:18:34;;;;;;;;;25.60;23.00;;;;;17.15;41.56;100499.28;5035814;28;45361;-56
2022/04/25 11:21:07;;;;;;;;;29.80;25.40;;;;;17.22;40.88;100514.88;5034708;28;45440;-51
2022/04/25 11:23:53;;;;;;;;;34.60;31.20;;;;;17.32;41.29;100532.47;5035697;28;46210;-54
2022/04/25 11:26:18;;;;;;;;;29.80;29.40;;;;;17.40;41.09;100533.06;5033994;28;45404;-55
2022/04/25 11:29:03;;;;;;;;;27.00;23.75;;;;;17.43;40.32;100527.00;5035664;28;45243;-58
2022/04/25 11:31:29;;;;;;;;;23.80;21.00;;;;;17.45;39.47;100522.84;5035624;28;45821;-54
2022/04/25 11:33:56;;;;;;;;;21.00;18.25;;;;;17.54;38.21;100527.91;5035022;28;46126;-56
2022/04/25 11:36:22;;;;;;;;;22.40;21.00;;;;;17.28;38.15;100486.09;5035392;28;45297;-53
2022/04/25 11:41:33;;;;;;;;;25.00;25.00;;;;;17.74;39.39;100511.44;5034782;28;45693;-53
2022/04/25 11:43:59;;;;;;;;;20.25;18.00;;;;;17.58;39.31;100482.75;5018605;28;45772;-55